createdAt,value
2018-06-02T00:01:35.862Z,21.10
2018-06-02T00:04:04.316Z,20.70
2018-06-02T00:06:32.766Z,23.90
2018-06-02T00:09:01.269Z,24.67
2018-06-02T00:11:32.157Z,28.57
2018-06-02T00:14:00.606Z,23.40
2018-06-02T00:16:29.108Z,26.73
2018-06-02T00:18:57.585Z,26.30
2018-06-02T00:21:26.032Z,28.93
2018-06-02T00:23:54.537Z,23.03
2018-06-02T00:26:22.989Z,30.03
2018-06-02T00:28:51.452Z,28.87
2018-06-02T00:31:19.957Z,29.43
2018-06-02T00:33:48.419Z,35.77
2018-06-02T00:36:16.875Z,28.37
2018-06-02T00:38:45.363Z,29.97
2018-06-02T00:41:13.820Z,31.57
2018-06-02T00:43:42.271Z,34.27
2018-06-02T00:46:10.769Z,33.27
2018-06-02T00:48:39.228Z,40.07
2018-06-02T00:51:07.681Z,36.77
2018-06-02T00:53:36.171Z,32.27
2018-06-02T00:56:04.641Z,36.97
2018-06-02T00:58:33.093Z,36.57
2018-06-02T01:01:01.604Z,33.13
2018-06-02T01:03:30.044Z,33.53
2018-06-02T01:05:58.504Z,36.20
2018-06-02T01:08:27.032Z,38.50
2018-06-02T01:10:55.487Z,38.27
2018-06-02T01:13:23.947Z,34.53
2018-06-02T01:15:52.437Z,37.70
2018-06-02T01:18:20.893Z,39.40
2018-06-02T01:20:49.361Z,41.17
2018-06-02T01:23:17.885Z,38.87
2018-06-02T01:25:46.336Z,39.77
2018-06-02T01:28:14.788Z,41.97
2018-06-02T01:30:43.281Z,43.17
2018-06-02T01:33:11.731Z,42.87
2018-06-02T01:35:40.172Z,36.53
2018-06-02T01:38:08.676Z,46.57
2018-06-02T01:40:37.129Z,46.07
2018-06-02T01:43:05.581Z,50.53
2018-06-02T01:45:34.084Z,37.07
2018-06-02T01:48:02.538Z,43.57
2018-06-02T01:50:31.015Z,49.90
2018-06-02T01:52:59.505Z,47.40
2018-06-02T01:55:27.988Z,51.67
2018-06-02T01:57:56.436Z,51.87
2018-06-02T02:00:24.940Z,50.07
2018-06-02T02:02:53.392Z,38.80
2018-06-02T02:05:21.845Z,43.73
2018-06-02T02:07:50.333Z,46.73
2018-06-02T02:10:18.788Z,42.60
2018-06-02T02:12:47.243Z,49.70
2018-06-02T02:15:15.755Z,48.13
2018-06-02T02:17:44.212Z,46.13
2018-06-02T02:20:12.669Z,43.93
2018-06-02T02:22:41.155Z,42.63
2018-06-02T02:25:09.605Z,42.83
2018-06-02T02:27:38.069Z,46.00
2018-06-02T02:30:06.563Z,47.63
2018-06-02T02:32:35.564Z,45.40
2018-06-02T02:35:04.015Z,49.80
2018-06-02T02:37:32.508Z,47.10
2018-06-02T02:40:00.961Z,50.47
2018-06-02T02:42:29.413Z,46.33
2018-06-02T02:44:57.901Z,52.93
2018-06-02T02:47:26.340Z,47.13
2018-06-02T02:49:54.800Z,49.63
2018-06-02T02:52:23.297Z,50.20
2018-06-02T02:54:51.756Z,47.67
2018-06-02T02:57:20.205Z,49.60
2018-06-02T02:59:48.723Z,48.93
2018-06-02T03:02:17.175Z,49.67
2018-06-02T03:04:45.636Z,45.10
2018-06-02T03:07:14.128Z,43.37
2018-06-02T03:09:42.588Z,45.77
2018-06-02T03:12:11.040Z,44.70
2018-06-02T03:14:39.552Z,53.03
2018-06-02T03:17:08.022Z,49.20
2018-06-02T03:19:36.481Z,43.13
2018-06-02T03:22:05.001Z,47.10
2018-06-02T03:24:33.449Z,49.50
2018-06-02T03:27:01.904Z,50.83
2018-06-02T03:29:30.412Z,59.87
2018-06-02T03:31:58.866Z,55.87
2018-06-02T03:34:27.336Z,59.27
2018-06-02T03:36:55.833Z,59.20
2018-06-02T03:39:24.291Z,61.73
2018-06-02T03:41:52.737Z,67.77
2018-06-02T03:44:21.230Z,58.83
2018-06-02T03:46:49.680Z,57.10
2018-06-02T03:49:18.117Z,62.43
2018-06-02T03:51:46.612Z,60.33
2018-06-02T03:54:15.080Z,69.13
2018-06-02T03:56:43.528Z,74.20
2018-06-02T03:59:12.025Z,72.20
2018-06-02T04:01:40.482Z,74.43
2018-06-02T04:04:08.936Z,77.20
2018-06-02T04:06:37.437Z,73.57
2018-06-02T04:09:05.920Z,80.60
2018-06-02T04:11:34.392Z,72.00
2018-06-02T04:14:02.885Z,70.57
2018-06-02T04:16:31.341Z,69.90
2018-06-02T04:18:59.793Z,68.93
2018-06-02T04:21:28.282Z,68.10
2018-06-02T04:23:56.729Z,61.67
2018-06-02T04:26:25.187Z,61.80
2018-06-02T04:28:53.677Z,61.93
2018-06-02T04:31:22.132Z,73.70
2018-06-02T04:33:50.590Z,70.93
2018-06-02T04:36:19.102Z,64.23
2018-06-02T04:38:47.553Z,73.70
2018-06-02T04:41:16.016Z,61.60
2018-06-02T04:43:44.509Z,68.13
2018-06-02T04:46:12.964Z,67.07
2018-06-02T04:48:41.418Z,71.10
2018-06-02T04:51:09.913Z,72.67
2018-06-02T04:53:38.360Z,68.27
2018-06-02T04:56:06.820Z,62.13
2018-06-02T04:58:35.309Z,53.37
2018-06-02T05:01:03.788Z,54.00
2018-06-02T05:03:32.242Z,55.10
2018-06-02T05:06:00.749Z,58.93
2018-06-02T05:08:29.204Z,59.67
2018-06-02T05:10:57.662Z,61.70
2018-06-02T05:13:26.148Z,63.70
2018-06-02T05:15:54.588Z,61.67
2018-06-02T05:18:23.045Z,60.60
2018-06-02T05:20:51.540Z,63.87
2018-06-02T05:23:19.992Z,66.10
2018-06-02T05:25:48.448Z,65.47
2018-06-02T05:28:16.950Z,60.20
2018-06-02T05:30:45.400Z,63.80
2018-06-02T05:33:13.858Z,67.63
2018-06-02T05:35:42.558Z,83.70
2018-06-02T05:38:11.004Z,78.80
2018-06-02T05:40:39.453Z,75.67
2018-06-02T05:43:07.941Z,76.23
2018-06-02T05:45:36.388Z,69.13
2018-06-02T05:48:04.845Z,82.27
2018-06-02T05:50:33.332Z,73.03
2018-06-02T05:53:01.791Z,75.67
2018-06-02T05:55:30.244Z,75.27
2018-06-02T05:57:58.939Z,69.30
2018-06-02T06:00:27.404Z,68.37
2018-06-02T06:02:55.876Z,71.90
2018-06-02T06:05:24.585Z,63.07
2018-06-02T06:07:53.041Z,65.17
2018-06-02T06:10:21.479Z,69.33
2018-06-02T06:12:49.980Z,79.30
2018-06-02T06:15:18.432Z,79.53
2018-06-02T06:17:46.885Z,87.07
2018-06-02T06:20:15.376Z,80.63
2018-06-02T06:22:43.829Z,77.80
2018-06-02T06:25:12.276Z,70.23
2018-06-02T06:27:40.777Z,66.47
2018-06-02T06:30:09.232Z,68.00
2018-06-02T06:32:37.691Z,64.90
2018-06-02T06:35:06.193Z,72.33
2018-06-02T06:37:34.657Z,61.67
2018-06-02T06:40:03.136Z,60.33
2018-06-02T06:42:31.653Z,64.43
2018-06-02T06:45:00.109Z,59.63
2018-06-02T06:47:28.572Z,60.53
2018-06-02T06:49:57.065Z,58.73
2018-06-02T06:52:25.517Z,61.83
2018-06-02T06:54:53.957Z,62.30
2018-06-02T06:57:22.473Z,55.13
2018-06-02T06:59:50.939Z,60.23
2018-06-02T07:02:19.409Z,53.03
2018-06-02T07:04:47.899Z,57.20
2018-06-02T07:07:16.361Z,54.00
2018-06-02T07:09:44.825Z,54.70
2018-06-02T07:12:13.495Z,55.03
2018-06-02T07:14:41.966Z,52.20
2018-06-02T07:17:10.440Z,55.23
2018-06-02T07:19:38.957Z,51.07
2018-06-02T07:22:07.405Z,50.60
2018-06-02T07:24:35.868Z,55.30
2018-06-02T07:27:04.386Z,49.80
2018-06-02T07:29:32.872Z,50.97
2018-06-02T07:32:01.334Z,49.87
2018-06-02T07:34:29.824Z,48.30
2018-06-02T07:36:58.287Z,53.53
2018-06-02T07:39:26.752Z,52.47
2018-06-02T07:41:55.353Z,54.57
2018-06-02T07:44:23.843Z,58.17
2018-06-02T07:46:52.326Z,56.23
2018-06-02T07:49:20.823Z,55.53
2018-06-02T07:51:49.273Z,56.97
2018-06-02T07:54:17.737Z,59.67
2018-06-02T07:56:46.246Z,61.03
2018-06-02T07:59:14.705Z,67.73
2018-06-02T08:01:43.170Z,60.60
2018-06-02T08:04:11.669Z,68.50
2018-06-02T08:06:40.125Z,67.10
2018-06-02T08:09:08.573Z,67.90
2018-06-02T08:11:37.072Z,65.87
2018-06-02T08:14:05.543Z,69.43
2018-06-02T08:16:33.995Z,65.87
2018-06-02T08:19:02.528Z,67.23
2018-06-02T08:21:30.997Z,64.80
2018-06-02T08:23:59.567Z,68.03
2018-06-02T08:26:28.061Z,62.83
2018-06-02T08:28:56.505Z,63.73
2018-06-02T08:31:24.961Z,61.83
2018-06-02T08:33:53.456Z,62.07
2018-06-02T08:36:21.905Z,60.37
2018-06-02T08:38:50.394Z,70.27
2018-06-02T08:41:19.035Z,66.07
2018-06-02T08:43:47.485Z,70.50
2018-06-02T08:46:15.968Z,63.47
2018-06-02T08:48:44.464Z,64.80
2018-06-02T08:51:12.919Z,65.77
2018-06-02T08:53:41.373Z,64.80
2018-06-02T08:56:09.884Z,60.10
2018-06-02T08:58:38.337Z,58.30
2018-06-02T09:01:06.822Z,61.40
2018-06-02T09:03:35.316Z,57.13
2018-06-02T09:06:03.772Z,59.67
2018-06-02T09:08:32.220Z,55.60
2018-06-02T09:11:00.769Z,65.33
2018-06-02T09:13:29.228Z,56.50
2018-06-02T09:15:57.686Z,56.33
2018-06-02T09:18:26.188Z,57.70
2018-06-02T09:20:54.646Z,55.07
2018-06-02T09:23:23.097Z,58.37
2018-06-02T09:25:51.593Z,53.90
2018-06-02T09:28:20.052Z,54.97
2018-06-02T09:30:48.502Z,55.40
2018-06-02T09:33:17.004Z,48.73
2018-06-02T09:35:45.472Z,50.03
2018-06-02T09:38:13.931Z,58.43
2018-06-02T09:40:42.438Z,54.43
2018-06-02T09:43:10.901Z,54.37
2018-06-02T09:45:39.349Z,50.93
2018-06-02T09:48:07.839Z,48.13
2018-06-02T09:50:36.298Z,46.77
2018-06-02T09:53:04.764Z,42.77
2018-06-02T09:55:33.359Z,39.97
2018-06-02T09:58:01.824Z,40.13
2018-06-02T10:00:30.716Z,38.53
2018-06-02T10:02:59.220Z,41.97
2018-06-02T10:05:27.682Z,37.20
2018-06-02T10:07:56.137Z,38.00
2018-06-02T10:10:24.627Z,36.00
2018-06-02T10:12:53.540Z,37.37
2018-06-02T10:15:22.009Z,36.80
2018-06-02T10:17:50.606Z,35.17
2018-06-02T10:20:19.049Z,36.47
2018-06-02T10:22:47.502Z,33.30
2018-06-02T10:25:15.992Z,35.80
2018-06-02T10:27:44.463Z,33.20
2018-06-02T10:30:12.906Z,32.97
2018-06-02T10:32:41.404Z,32.40
2018-06-02T10:35:09.850Z,31.50
2018-06-02T10:37:38.285Z,31.53
2018-06-02T10:40:06.771Z,30.30
2018-06-02T10:42:35.219Z,28.40
2018-06-02T10:45:03.665Z,28.63
2018-06-02T10:47:32.138Z,29.37
2018-06-02T10:50:00.572Z,29.70
2018-06-02T10:52:29.013Z,29.77
2018-06-02T10:54:57.488Z,27.67
2018-06-02T10:57:25.921Z,24.27
2018-06-02T10:59:54.373Z,22.53
2018-06-02T11:02:22.844Z,22.70
2018-06-02T11:04:51.280Z,18.57
2018-06-02T11:07:19.713Z,23.00
2018-06-02T11:09:48.181Z,23.00
2018-06-02T11:12:16.610Z,20.00
2018-06-02T11:14:45.050Z,18.23
2018-06-02T11:17:13.540Z,18.40
2018-06-02T11:19:41.976Z,17.87
2018-06-02T11:22:10.439Z,17.80
2018-06-02T11:24:38.942Z,19.07
2018-06-02T11:27:07.378Z,19.47
2018-06-02T11:29:35.809Z,23.53
2018-06-02T11:32:04.289Z,22.20
2018-06-02T11:34:32.729Z,21.50
2018-06-02T11:37:01.171Z,19.97
2018-06-02T11:39:29.657Z,19.33
2018-06-02T11:41:58.097Z,19.00
2018-06-02T11:44:26.528Z,17.70
2018-06-02T11:46:55.008Z,18.73
2018-06-02T11:49:23.459Z,21.63
2018-06-02T11:51:51.898Z,21.80
2018-06-02T11:54:20.368Z,21.93
2018-06-02T11:56:48.804Z,21.87
2018-06-02T11:59:17.252Z,21.63
2018-06-02T12:01:45.720Z,19.77
2018-06-02T12:04:14.156Z,22.17
2018-06-02T12:06:42.583Z,21.27
2018-06-02T12:09:11.061Z,20.57
2018-06-02T12:11:39.501Z,21.43
2018-06-02T12:14:07.947Z,22.30
2018-06-02T12:16:36.419Z,19.00
2018-06-02T12:19:04.856Z,20.93
2018-06-02T12:21:33.278Z,23.77
2018-06-02T12:24:01.758Z,28.63
2018-06-02T12:26:30.185Z,24.37
2018-06-02T12:28:58.623Z,23.73
2018-06-02T12:31:27.116Z,24.33
2018-06-02T12:33:55.558Z,27.10
2018-06-02T12:36:24.004Z,27.57
2018-06-02T12:38:52.498Z,27.07
2018-06-02T12:41:20.925Z,27.03
2018-06-02T12:43:49.377Z,25.50
2018-06-02T12:46:17.898Z,25.63
2018-06-02T12:48:46.320Z,27.03
2018-06-02T12:51:14.754Z,29.40
2018-06-02T12:53:43.228Z,23.13
2018-06-02T12:56:11.660Z,23.73
2018-06-02T12:58:40.106Z,22.57
2018-06-02T13:01:08.573Z,22.53
2018-06-02T13:03:37.005Z,24.63
2018-06-02T13:06:05.496Z,22.77
2018-06-02T13:08:34.013Z,24.03
2018-06-02T13:11:02.448Z,23.27
2018-06-02T13:13:30.888Z,22.70
2018-06-02T13:15:59.365Z,22.23
2018-06-02T13:18:27.795Z,24.73
2018-06-02T13:20:56.232Z,22.33
2018-06-02T13:23:24.701Z,24.93
2018-06-02T13:25:53.149Z,28.93
2018-06-02T13:28:21.592Z,28.63
2018-06-02T13:30:50.070Z,26.13
2018-06-02T13:33:18.499Z,28.13
2018-06-02T13:35:46.950Z,22.80
2018-06-02T13:38:15.438Z,22.60
2018-06-02T13:40:43.869Z,20.97
2018-06-02T13:43:12.304Z,25.20
2018-06-02T13:45:40.798Z,23.43
2018-06-02T13:48:09.283Z,22.37
2018-06-02T13:50:37.733Z,24.50
2018-06-02T13:53:06.223Z,23.60
2018-06-02T13:55:34.706Z,18.63
2018-06-02T13:58:03.153Z,21.67
2018-06-02T14:00:31.724Z,19.87
2018-06-02T14:03:00.182Z,23.87
2018-06-02T14:05:28.619Z,23.30
2018-06-02T14:07:57.105Z,25.40
2018-06-02T14:10:25.545Z,18.00
2018-06-02T14:12:53.985Z,19.50
2018-06-02T14:15:22.463Z,23.60
2018-06-02T14:17:50.905Z,21.13
2018-06-02T14:20:19.337Z,23.80
2018-06-02T14:22:47.835Z,23.53
2018-06-02T14:25:16.281Z,24.43
2018-06-02T14:27:44.705Z,18.53
2018-06-02T14:30:13.186Z,20.23
2018-06-02T14:32:41.627Z,20.67
2018-06-02T14:35:10.067Z,21.90
2018-06-02T14:37:38.537Z,19.17
2018-06-02T14:40:06.993Z,22.97
2018-06-02T14:42:35.425Z,19.70
2018-06-02T14:45:03.935Z,21.73
2018-06-02T14:47:32.371Z,19.70
2018-06-02T14:50:00.809Z,20.43
2018-06-02T14:52:29.290Z,18.23
2018-06-02T14:54:58.632Z,23.27
2018-06-02T14:57:27.066Z,24.73
2018-06-02T14:59:55.552Z,18.83
2018-06-02T15:02:23.985Z,19.33
2018-06-02T15:04:52.421Z,19.20
2018-06-02T15:07:20.888Z,20.00
2018-06-02T15:09:49.324Z,24.57
2018-06-02T15:12:17.777Z,17.80
2018-06-02T15:14:46.264Z,15.43
2018-06-02T15:17:14.697Z,15.20
2018-06-02T15:19:43.136Z,15.10
2018-06-02T15:22:11.616Z,15.53
2018-06-02T15:24:40.052Z,13.37
2018-06-02T15:27:08.483Z,13.20
2018-06-02T15:29:36.959Z,16.07
2018-06-02T15:32:05.389Z,14.30
2018-06-02T15:34:33.817Z,17.87
2018-06-02T15:37:02.294Z,13.13
2018-06-02T15:39:30.745Z,13.63
2018-06-02T15:41:59.176Z,12.47
2018-06-02T15:44:27.640Z,11.17
2018-06-02T15:46:56.073Z,13.67
2018-06-02T15:49:24.500Z,9.50
2018-06-02T15:51:52.971Z,14.03
2018-06-02T15:54:21.409Z,12.13
2018-06-02T15:56:49.845Z,11.53
2018-06-02T15:59:18.313Z,10.03
2018-06-02T16:01:46.740Z,11.27
2018-06-02T16:04:15.168Z,13.10
2018-06-02T16:06:43.672Z,13.37
2018-06-02T16:09:12.114Z,8.87
2018-06-02T16:11:40.557Z,14.57
2018-06-02T16:14:09.024Z,10.63
2018-06-02T16:16:37.453Z,12.90
2018-06-02T16:19:05.886Z,11.67
2018-06-02T16:21:34.373Z,10.87
2018-06-02T16:24:02.808Z,10.47
2018-06-02T16:26:31.232Z,11.13
2018-06-02T16:28:59.755Z,10.67
2018-06-02T16:31:28.177Z,13.37
2018-06-02T16:33:56.612Z,9.70
2018-06-02T16:36:25.073Z,9.70
2018-06-02T16:38:53.500Z,9.00
2018-06-02T16:41:21.928Z,11.63
2018-06-02T16:43:50.420Z,11.57
2018-06-02T16:46:18.845Z,11.13
2018-06-02T16:48:47.285Z,10.70
2018-06-02T16:51:15.753Z,11.07
2018-06-02T16:53:44.265Z,11.67
2018-06-02T16:56:12.700Z,11.13
2018-06-02T16:58:41.162Z,10.60
2018-06-02T17:01:09.590Z,13.43
2018-06-02T17:03:38.017Z,12.30
2018-06-02T17:06:06.517Z,12.17
2018-06-02T17:08:34.945Z,13.50
2018-06-02T17:11:03.389Z,14.13
2018-06-02T17:13:31.892Z,13.03
2018-06-02T17:16:00.321Z,13.40
2018-06-02T17:18:28.755Z,15.47
2018-06-02T17:20:57.249Z,12.80
2018-06-02T17:23:25.699Z,13.83
2018-06-02T17:25:54.141Z,13.63
2018-06-02T17:28:22.626Z,13.60
2018-06-02T17:30:51.064Z,14.90
2018-06-02T17:33:19.502Z,14.37
2018-06-02T17:35:48.005Z,13.67
2018-06-02T17:38:16.451Z,12.27
2018-06-02T17:40:44.880Z,15.20
2018-06-02T17:43:13.350Z,18.13
2018-06-02T17:45:41.801Z,17.50
2018-06-02T17:48:10.264Z,16.53
2018-06-02T17:50:38.743Z,18.03
2018-06-02T17:53:07.221Z,18.83
2018-06-02T17:55:35.661Z,15.80
2018-06-02T17:58:04.156Z,22.00
2018-06-02T18:00:32.643Z,17.03
2018-06-02T18:03:01.077Z,17.00
2018-06-02T18:05:29.555Z,17.37
2018-06-02T18:07:58.004Z,17.63
2018-06-02T18:10:26.450Z,22.33
2018-06-02T18:12:55.006Z,19.33
2018-06-02T18:15:23.440Z,18.77
2018-06-02T18:17:51.879Z,19.07
2018-06-02T18:20:20.357Z,17.97
2018-06-02T18:22:48.796Z,19.33
2018-06-02T18:25:17.226Z,20.17
2018-06-02T18:27:45.721Z,20.63
2018-06-02T18:30:14.161Z,22.53
2018-06-02T18:32:42.605Z,19.00
2018-06-02T18:35:11.101Z,20.80
2018-06-02T18:37:39.551Z,21.43
2018-06-02T18:40:07.987Z,20.10
2018-06-02T18:42:36.478Z,20.67
2018-06-02T18:45:04.928Z,21.43
2018-06-02T18:47:33.373Z,22.60
2018-06-02T18:50:01.869Z,20.17
2018-06-02T18:52:30.313Z,19.87
2018-06-02T18:54:58.770Z,21.53
2018-06-02T18:57:27.248Z,21.30
2018-06-02T18:59:55.677Z,18.77
2018-06-02T19:02:24.119Z,21.80
2018-06-02T19:04:52.603Z,23.47
2018-06-02T19:07:21.057Z,21.53
2018-06-02T19:09:49.516Z,18.50
2018-06-02T19:12:17.988Z,21.37
2018-06-02T19:14:46.432Z,22.80
2018-06-02T19:17:14.896Z,24.83
2018-06-02T19:19:43.406Z,20.70
2018-06-02T19:22:11.861Z,19.77
2018-06-02T19:24:40.305Z,19.93
2018-06-02T19:27:08.785Z,24.13
2018-06-02T19:29:37.233Z,22.37
2018-06-02T19:32:05.670Z,23.90
2018-06-02T19:34:34.157Z,21.80
2018-06-02T19:37:02.590Z,26.53
2018-06-02T19:39:31.045Z,25.60
2018-06-02T19:41:59.534Z,26.23
2018-06-02T19:44:27.970Z,26.03
2018-06-02T19:46:56.420Z,28.80
2018-06-02T19:49:24.918Z,26.70
2018-06-02T19:51:53.367Z,24.50
2018-06-02T19:54:21.828Z,23.97
2018-06-02T19:56:50.344Z,30.00
2018-06-02T19:59:18.784Z,24.87
2018-06-02T20:01:47.242Z,29.13
2018-06-02T20:04:15.866Z,27.73
2018-06-02T20:06:44.381Z,20.73
2018-06-02T20:09:12.819Z,24.43
2018-06-02T20:11:41.316Z,23.33
2018-06-02T20:14:09.756Z,31.13
2018-06-02T20:16:38.214Z,29.37
2018-06-02T20:19:06.697Z,29.70
2018-06-02T20:21:35.165Z,26.90
2018-06-02T20:24:03.633Z,24.73
2018-06-02T20:26:32.107Z,33.90
2018-06-02T20:29:00.549Z,25.70
2018-06-02T20:31:28.988Z,27.10
2018-06-02T20:33:57.475Z,29.57
2018-06-02T20:36:26.244Z,31.80
2018-06-02T20:38:54.696Z,22.53
2018-06-02T20:41:23.231Z,29.73
2018-06-02T20:43:51.694Z,28.67
2018-06-02T20:46:20.216Z,32.97
2018-06-02T20:48:48.736Z,31.07
2018-06-02T20:51:17.199Z,31.80
2018-06-02T20:53:45.658Z,32.03
2018-06-02T20:56:14.163Z,29.53
2018-06-02T20:58:42.614Z,29.50
2018-06-02T21:01:11.066Z,28.67
2018-06-02T21:03:39.553Z,31.27
2018-06-02T21:06:07.977Z,30.77
2018-06-02T21:08:36.442Z,30.30
2018-06-02T21:11:04.956Z,33.27
2018-06-02T21:13:33.417Z,31.57
2018-06-02T21:16:01.869Z,26.27
2018-06-02T21:18:30.359Z,28.40
2018-06-02T21:20:58.796Z,25.87
2018-06-02T21:23:27.244Z,26.30
2018-06-02T21:25:55.733Z,24.70
2018-06-02T21:28:24.175Z,27.30
2018-06-02T21:30:52.607Z,29.10
2018-06-02T21:33:21.097Z,25.90
2018-06-02T21:35:49.529Z,22.93
2018-06-02T21:38:17.970Z,24.43
2018-06-02T21:40:46.447Z,30.80
2018-06-02T21:43:14.885Z,30.23
2018-06-02T21:45:43.337Z,25.33
2018-06-02T21:48:12.275Z,25.13
2018-06-02T21:50:40.725Z,25.03
2018-06-02T21:53:09.164Z,28.10
2018-06-02T21:55:37.641Z,26.20
2018-06-02T21:58:06.084Z,27.30
2018-06-02T22:00:34.540Z,27.70
2018-06-02T22:03:03.039Z,29.43
2018-06-02T22:05:31.510Z,28.80
2018-06-02T22:07:59.951Z,26.33
2018-06-02T22:10:28.609Z,23.67
2018-06-02T22:12:57.084Z,25.37
2018-06-02T22:15:25.568Z,25.43
2018-06-02T22:17:54.044Z,23.73
2018-06-02T22:20:22.484Z,24.27
2018-06-02T22:22:50.917Z,23.23
2018-06-02T22:25:19.405Z,21.60
2018-06-02T22:27:47.841Z,24.23
2018-06-02T22:30:16.280Z,26.97
2018-06-02T22:32:44.785Z,27.77
2018-06-02T22:35:13.221Z,28.53
2018-06-02T22:37:41.661Z,25.50
2018-06-02T22:40:10.141Z,27.53
2018-06-02T22:42:38.572Z,27.27
2018-06-02T22:45:07.038Z,23.80
2018-06-02T22:47:35.515Z,24.20
2018-06-02T22:50:04.010Z,27.60
2018-06-02T22:52:32.470Z,24.63
2018-06-02T22:55:01.009Z,22.80
2018-06-02T22:57:29.485Z,26.07
2018-06-02T22:59:57.963Z,26.20
2018-06-02T23:02:26.462Z,26.10
2018-06-02T23:04:54.933Z,26.47
2018-06-02T23:07:23.423Z,31.37
2018-06-02T23:09:51.947Z,27.10
2018-06-02T23:12:20.395Z,29.20
2018-06-02T23:14:48.854Z,32.47
2018-06-02T23:17:17.334Z,29.10
2018-06-02T23:19:45.772Z,31.33
2018-06-02T23:22:27.782Z,28.97
2018-06-02T23:24:56.228Z,28.73
2018-06-02T23:27:24.678Z,28.77
2018-06-02T23:29:53.170Z,30.77
2018-06-02T23:32:21.609Z,31.17
2018-06-02T23:34:50.048Z,29.70
2018-06-02T23:37:18.530Z,30.63
2018-06-02T23:39:46.972Z,33.77
2018-06-02T23:42:15.415Z,30.47
2018-06-02T23:44:43.893Z,32.37
2018-06-02T23:47:12.345Z,34.77
2018-06-02T23:49:40.784Z,32.13
2018-06-02T23:52:09.263Z,31.13
2018-06-02T23:54:37.715Z,32.60
2018-06-02T23:57:06.162Z,28.83
2018-06-02T23:59:34.825Z,32.93
